sensor_id;sensor_type;location;lat;lon;timestamp;P1;durP1;ratioP1;P2;durP2;ratioP2
52614;SDS011;38508;53.158;6.614;2022-08-06T00:02:16;4.78;;;1.20;;
52614;SDS011;38508;53.158;6.614;2022-08-06T00:04:45;5.07;;;1.90;;
52614;SDS011;38508;53.158;6.614;2022-08-06T00:07:12;3.25;;;0.77;;
52614;SDS011;38508;53.158;6.614;2022-08-06T00:09:37;5.88;;;1.17;;
52614;SDS011;38508;53.158;6.614;2022-08-06T00:12:03;3.30;;;1.15;;
52614;SDS011;38508;53.158;6.614;2022-08-06T00:14:30;4.20;;;1.05;;
52614;SDS011;38508;53.158;6.614;2022-08-06T00:16:58;5.47;;;1.00;;
52614;SDS011;38508;53.158;6.614;2022-08-06T00:19:24;4.00;;;1.10;;
52614;SDS011;38508;53.158;6.614;2022-08-06T00:21:50;2.97;;;0.90;;
52614;SDS011;38508;53.158;6.614;2022-08-06T00:24:17;3.38;;;1.20;;
52614;SDS011;38508;53.158;6.614;2022-08-06T00:26:43;4.20;;;1.08;;
52614;SDS011;38508;53.158;6.614;2022-08-06T00:29:09;1.90;;;0.93;;
52614;SDS011;38508;53.158;6.614;2022-08-06T00:31:35;3.40;;;0.98;;
52614;SDS011;38508;53.158;6.614;2022-08-06T00:34:01;2.20;;;0.90;;
52614;SDS011;38508;53.158;6.614;2022-08-06T00:36:29;2.97;;;0.85;;
52614;SDS011;38508;53.158;6.614;2022-08-06T00:38:57;2.75;;;0.98;;
52614;SDS011;38508;53.158;6.614;2022-08-06T00:41:24;2.03;;;1.02;;
52614;SDS011;38508;53.158;6.614;2022-08-06T00:43:50;3.60;;;1.20;;
52614;SDS011;38508;53.158;6.614;2022-08-06T00:46:16;3.42;;;1.23;;
52614;SDS011;38508;53.158;6.614;2022-08-06T00:48:42;4.03;;;1.05;;
52614;SDS011;38508;53.158;6.614;2022-08-06T00:51:08;2.78;;;1.10;;
52614;SDS011;38508;53.158;6.614;2022-08-06T00:53:34;2.40;;;1.20;;
52614;SDS011;38508;53.158;6.614;2022-08-06T00:56:02;2.45;;;1.17;;
52614;SDS011;38508;53.158;6.614;2022-08-06T00:58:28;4.13;;;1.30;;
52614;SDS011;38508;53.158;6.614;2022-08-06T01:00:54;4.45;;;1.15;;
52614;SDS011;38508;53.158;6.614;2022-08-06T01:03:20;2.22;;;1.10;;
52614;SDS011;38508;53.158;6.614;2022-08-06T01:05:46;4.20;;;1.33;;
52614;SDS011;38508;53.158;6.614;2022-08-06T01:08:12;3.22;;;1.10;;
52614;SDS011;38508;53.158;6.614;2022-08-06T01:10:38;3.22;;;1.27;;
52614;SDS011;38508;53.158;6.614;2022-08-06T01:13:04;3.35;;;1.15;;
52614;SDS011;38508;53.158;6.614;2022-08-06T01:15:31;3.88;;;1.20;;
52614;SDS011;38508;53.158;6.614;2022-08-06T01:18:01;1.92;;;1.15;;
52614;SDS011;38508;53.158;6.614;2022-08-06T01:23:36;6.40;;;1.02;;
52614;SDS011;38508;53.158;6.614;2022-08-06T01:26:46;2.85;;;1.25;;
52614;SDS011;38508;53.158;6.614;2022-08-06T01:29:20;5.22;;;1.05;;
52614;SDS011;38508;53.158;6.614;2022-08-06T01:31:48;2.90;;;1.10;;
52614;SDS011;38508;53.158;6.614;2022-08-06T01:34:22;3.38;;;1.02;;
52614;SDS011;38508;53.158;6.614;2022-08-06T01:39:38;1.63;;;0.90;;
52614;SDS011;38508;53.158;6.614;2022-08-06T01:42:05;2.47;;;1.00;;
52614;SDS011;38508;53.158;6.614;2022-08-06T01:44:35;1.77;;;0.70;;
52614;SDS011;38508;53.158;6.614;2022-08-06T01:47:05;6.20;;;0.93;;
52614;SDS011;38508;53.158;6.614;2022-08-06T01:49:36;2.42;;;1.05;;
52614;SDS011;38508;53.158;6.614;2022-08-06T01:52:04;3.53;;;1.02;;
52614;SDS011;38508;53.158;6.614;2022-08-06T01:54:34;3.15;;;0.80;;
52614;SDS011;38508;53.158;6.614;2022-08-06T01:57:03;3.40;;;0.90;;
52614;SDS011;38508;53.158;6.614;2022-08-06T01:59:33;1.27;;;0.80;;
52614;SDS011;38508;53.158;6.614;2022-08-06T02:02:02;2.60;;;0.93;;
52614;SDS011;38508;53.158;6.614;2022-08-06T02:04:33;2.55;;;0.98;;
52614;SDS011;38508;53.158;6.614;2022-08-06T02:07:03;3.03;;;0.93;;
52614;SDS011;38508;53.158;6.614;2022-08-06T02:09:32;3.78;;;1.00;;
52614;SDS011;38508;53.158;6.614;2022-08-06T02:14:39;2.25;;;0.98;;
52614;SDS011;38508;53.158;6.614;2022-08-06T02:17:07;2.35;;;1.15;;
52614;SDS011;38508;53.158;6.614;2022-08-06T02:19:36;4.00;;;1.13;;
52614;SDS011;38508;53.158;6.614;2022-08-06T02:22:05;3.65;;;1.02;;
52614;SDS011;38508;53.158;6.614;2022-08-06T02:24:31;2.83;;;1.35;;
52614;SDS011;38508;53.158;6.614;2022-08-06T02:26:59;3.78;;;1.30;;
52614;SDS011;38508;53.158;6.614;2022-08-06T02:29:27;2.45;;;1.10;;
52614;SDS011;38508;53.158;6.614;2022-08-06T02:31:53;2.22;;;0.90;;
52614;SDS011;38508;53.158;6.614;2022-08-06T02:34:20;3.60;;;1.08;;
52614;SDS011;38508;53.158;6.614;2022-08-06T02:36:50;3.53;;;1.00;;
52614;SDS011;38508;53.158;6.614;2022-08-06T02:44:38;2.20;;;1.20;;
52614;SDS011;38508;53.158;6.614;2022-08-06T02:47:33;4.53;;;0.93;;
52614;SDS011;38508;53.158;6.614;2022-08-06T02:50:05;3.80;;;1.50;;
52614;SDS011;38508;53.158;6.614;2022-08-06T02:52:40;4.00;;;1.10;;
52614;SDS011;38508;53.158;6.614;2022-08-06T02:55:18;3.00;;;1.42;;
52614;SDS011;38508;53.158;6.614;2022-08-06T02:57:51;2.70;;;1.02;;
52614;SDS011;38508;53.158;6.614;2022-08-06T03:00:19;1.58;;;1.00;;
52614;SDS011;38508;53.158;6.614;2022-08-06T03:02:47;3.25;;;1.00;;
52614;SDS011;38508;53.158;6.614;2022-08-06T03:05:18;2.50;;;1.13;;
52614;SDS011;38508;53.158;6.614;2022-08-06T03:07:46;2.97;;;1.10;;
52614;SDS011;38508;53.158;6.614;2022-08-06T03:10:14;2.55;;;1.10;;
52614;SDS011;38508;53.158;6.614;2022-08-06T03:12:42;3.13;;;0.93;;
52614;SDS011;38508;53.158;6.614;2022-08-06T03:15:08;3.42;;;0.80;;
52614;SDS011;38508;53.158;6.614;2022-08-06T03:17:36;2.53;;;1.23;;
52614;SDS011;38508;53.158;6.614;2022-08-06T03:20:04;1.58;;;1.10;;
52614;SDS011;38508;53.158;6.614;2022-08-06T03:22:32;2.13;;;1.10;;
52614;SDS011;38508;53.158;6.614;2022-08-06T03:24:59;3.63;;;0.93;;
52614;SDS011;38508;53.158;6.614;2022-08-06T03:27:26;1.30;;;1.10;;
52614;SDS011;38508;53.158;6.614;2022-08-06T03:29:52;5.63;;;1.25;;
52614;SDS011;38508;53.158;6.614;2022-08-06T03:32:19;2.53;;;1.13;;
52614;SDS011;38508;53.158;6.614;2022-08-06T03:34:46;2.05;;;1.15;;
52614;SDS011;38508;53.158;6.614;2022-08-06T03:37:13;2.15;;;1.27;;
52614;SDS011;38508;53.158;6.614;2022-08-06T03:39:42;1.67;;;1.20;;
52614;SDS011;38508;53.158;6.614;2022-08-06T03:42:08;2.75;;;1.35;;
52614;SDS011;38508;53.158;6.614;2022-08-06T03:44:34;1.88;;;1.25;;
52614;SDS011;38508;53.158;6.614;2022-08-06T03:47:04;2.90;;;1.58;;
52614;SDS011;38508;53.158;6.614;2022-08-06T03:50:04;2.78;;;1.42;;
52614;SDS011;38508;53.158;6.614;2022-08-06T03:52:36;3.03;;;1.60;;
52614;SDS011;38508;53.158;6.614;2022-08-06T03:55:07;2.65;;;1.38;;
52614;SDS011;38508;53.158;6.614;2022-08-06T03:57:38;4.78;;;1.60;;
52614;SDS011;38508;53.158;6.614;2022-08-06T04:00:09;3.75;;;1.40;;
52614;SDS011;38508;53.158;6.614;2022-08-06T04:02:38;3.10;;;1.52;;
52614;SDS011;38508;53.158;6.614;2022-08-06T04:05:07;1.75;;;1.20;;
52614;SDS011;38508;53.158;6.614;2022-08-06T04:07:36;3.35;;;1.60;;
52614;SDS011;38508;53.158;6.614;2022-08-06T04:10:04;3.08;;;1.60;;
52614;SDS011;38508;53.158;6.614;2022-08-06T04:12:31;5.68;;;1.55;;
52614;SDS011;38508;53.158;6.614;2022-08-06T04:14:58;5.00;;;1.65;;
52614;SDS011;38508;53.158;6.614;2022-08-06T04:17:24;3.88;;;1.45;;
52614;SDS011;38508;53.158;6.614;2022-08-06T04:19:52;2.17;;;1.23;;
52614;SDS011;38508;53.158;6.614;2022-08-06T04:22:18;1.90;;;1.40;;
52614;SDS011;38508;53.158;6.614;2022-08-06T04:24:45;3.50;;;1.45;;
52614;SDS011;38508;53.158;6.614;2022-08-06T04:27:13;2.63;;;1.60;;
52614;SDS011;38508;53.158;6.614;2022-08-06T04:29:40;1.92;;;1.55;;
52614;SDS011;38508;53.158;6.614;2022-08-06T04:32:07;2.38;;;1.35;;
52614;SDS011;38508;53.158;6.614;2022-08-06T04:34:35;4.10;;;1.60;;
52614;SDS011;38508;53.158;6.614;2022-08-06T04:37:03;2.42;;;1.05;;
52614;SDS011;38508;53.158;6.614;2022-08-06T04:39:30;2.28;;;1.30;;
52614;SDS011;38508;53.158;6.614;2022-08-06T04:41:56;2.10;;;1.30;;
52614;SDS011;38508;53.158;6.614;2022-08-06T04:44:22;3.28;;;1.50;;
52614;SDS011;38508;53.158;6.614;2022-08-06T04:46:48;4.57;;;1.58;;
52614;SDS011;38508;53.158;6.614;2022-08-06T04:49:16;2.83;;;1.27;;
52614;SDS011;38508;53.158;6.614;2022-08-06T04:51:45;2.25;;;1.38;;
52614;SDS011;38508;53.158;6.614;2022-08-06T04:54:12;5.63;;;1.85;;
52614;SDS011;38508;53.158;6.614;2022-08-06T04:56:38;3.63;;;1.30;;
52614;SDS011;38508;53.158;6.614;2022-08-06T04:59:05;3.28;;;1.33;;
52614;SDS011;38508;53.158;6.614;2022-08-06T05:01:31;2.13;;;1.40;;
52614;SDS011;38508;53.158;6.614;2022-08-06T05:03:57;3.15;;;1.63;;
52614;SDS011;38508;53.158;6.614;2022-08-06T05:07:05;2.60;;;1.60;;
52614;SDS011;38508;53.158;6.614;2022-08-06T05:09:18;4.07;;;1.30;;
52614;SDS011;38508;53.158;6.614;2022-08-06T05:11:47;1.60;;;1.10;;
52614;SDS011;38508;53.158;6.614;2022-08-06T05:14:20;5.45;;;1.50;;
52614;SDS011;38508;53.158;6.614;2022-08-06T05:16:50;4.22;;;1.65;;
52614;SDS011;38508;53.158;6.614;2022-08-06T05:19:21;2.97;;;1.35;;
52614;SDS011;38508;53.158;6.614;2022-08-06T05:21:52;1.63;;;1.30;;
52614;SDS011;38508;53.158;6.614;2022-08-06T05:24:20;1.23;;;1.13;;
52614;SDS011;38508;53.158;6.614;2022-08-06T05:26:46;3.08;;;1.50;;
52614;SDS011;38508;53.158;6.614;2022-08-06T05:29:17;4.55;;;1.80;;
52614;SDS011;38508;53.158;6.614;2022-08-06T05:31:44;2.65;;;1.45;;
52614;SDS011;38508;53.158;6.614;2022-08-06T05:34:11;3.72;;;1.30;;
52614;SDS011;38508;53.158;6.614;2022-08-06T05:36:37;2.33;;;1.70;;
52614;SDS011;38508;53.158;6.614;2022-08-06T05:39:03;2.97;;;1.50;;
52614;SDS011;38508;53.158;6.614;2022-08-06T05:41:29;4.43;;;1.60;;
52614;SDS011;38508;53.158;6.614;2022-08-06T05:43:55;1.85;;;1.45;;
52614;SDS011;38508;53.158;6.614;2022-08-06T05:46:21;1.85;;;1.30;;
52614;SDS011;38508;53.158;6.614;2022-08-06T05:48:55;4.43;;;1.33;;
52614;SDS011;38508;53.158;6.614;2022-08-06T05:51:38;3.75;;;1.50;;
52614;SDS011;38508;53.158;6.614;2022-08-06T05:54:33;3.80;;;1.40;;
52614;SDS011;38508;53.158;6.614;2022-08-06T05:56:59;2.97;;;1.20;;
52614;SDS011;38508;53.158;6.614;2022-08-06T05:59:32;2.72;;;1.27;;
52614;SDS011;38508;53.158;6.614;2022-08-06T06:02:00;3.67;;;1.55;;
52614;SDS011;38508;53.158;6.614;2022-08-06T06:04:27;4.43;;;1.70;;
52614;SDS011;38508;53.158;6.614;2022-08-06T06:06:54;3.58;;;1.40;;
52614;SDS011;38508;53.158;6.614;2022-08-06T06:09:20;3.15;;;1.42;;
52614;SDS011;38508;53.158;6.614;2022-08-06T06:11:46;5.15;;;1.40;;
52614;SDS011;38508;53.158;6.614;2022-08-06T06:25:40;2.88;;;1.40;;
52614;SDS011;38508;53.158;6.614;2022-08-06T06:28:26;6.50;;;2.00;;
52614;SDS011;38508;53.158;6.614;2022-08-06T06:31:20;1.73;;;1.30;;
52614;SDS011;38508;53.158;6.614;2022-08-06T06:34:00;2.92;;;1.10;;
52614;SDS011;38508;53.158;6.614;2022-08-06T06:36:32;3.00;;;1.20;;
52614;SDS011;38508;53.158;6.614;2022-08-06T06:41:32;1.83;;;1.10;;
52614;SDS011;38508;53.158;6.614;2022-08-06T06:44:16;1.27;;;1.00;;
52614;SDS011;38508;53.158;6.614;2022-08-06T06:46:51;3.47;;;1.00;;
52614;SDS011;38508;53.158;6.614;2022-08-06T06:49:25;4.13;;;1.10;;
52614;SDS011;38508;53.158;6.614;2022-08-06T06:51:59;1.63;;;0.75;;
52614;SDS011;38508;53.158;6.614;2022-08-06T06:57:09;3.17;;;0.93;;
52614;SDS011;38508;53.158;6.614;2022-08-06T06:59:39;1.92;;;0.70;;
52614;SDS011;38508;53.158;6.614;2022-08-06T07:02:10;4.47;;;0.80;;
52614;SDS011;38508;53.158;6.614;2022-08-06T07:04:43;4.53;;;0.85;;
52614;SDS011;38508;53.158;6.614;2022-08-06T07:07:10;2.78;;;0.90;;
52614;SDS011;38508;53.158;6.614;2022-08-06T07:09:37;3.42;;;0.90;;
52614;SDS011;38508;53.158;6.614;2022-08-06T07:12:04;2.50;;;1.00;;
52614;SDS011;38508;53.158;6.614;2022-08-06T07:14:32;5.38;;;0.77;;
52614;SDS011;38508;53.158;6.614;2022-08-06T07:17:00;3.15;;;0.70;;
52614;SDS011;38508;53.158;6.614;2022-08-06T07:19:27;2.10;;;0.50;;
52614;SDS011;38508;53.158;6.614;2022-08-06T07:21:54;4.13;;;0.70;;
52614;SDS011;38508;53.158;6.614;2022-08-06T07:24:22;2.47;;;0.60;;
52614;SDS011;38508;53.158;6.614;2022-08-06T07:26:49;2.13;;;0.30;;
52614;SDS011;38508;53.158;6.614;2022-08-06T07:29:17;2.67;;;0.30;;
52614;SDS011;38508;53.158;6.614;2022-08-06T07:31:44;2.30;;;0.70;;
52614;SDS011;38508;53.158;6.614;2022-08-06T07:34:12;2.90;;;0.32;;
52614;SDS011;38508;53.158;6.614;2022-08-06T07:36:46;3.63;;;0.50;;
52614;SDS011;38508;53.158;6.614;2022-08-06T07:39:17;1.95;;;0.30;;
52614;SDS011;38508;53.158;6.614;2022-08-06T07:41:49;2.95;;;0.40;;
52614;SDS011;38508;53.158;6.614;2022-08-06T07:44:17;2.78;;;0.60;;
52614;SDS011;38508;53.158;6.614;2022-08-06T07:46:46;3.35;;;0.40;;
52614;SDS011;38508;53.158;6.614;2022-08-06T07:49:15;1.20;;;0.30;;
52614;SDS011;38508;53.158;6.614;2022-08-06T07:51:44;3.05;;;0.35;;
52614;SDS011;38508;53.158;6.614;2022-08-06T07:54:11;4.38;;;0.57;;
52614;SDS011;38508;53.158;6.614;2022-08-06T07:56:39;2.70;;;0.40;;
52614;SDS011;38508;53.158;6.614;2022-08-06T07:59:06;4.25;;;0.40;;
52614;SDS011;38508;53.158;6.614;2022-08-06T08:01:34;3.40;;;0.45;;
52614;SDS011;38508;53.158;6.614;2022-08-06T08:04:01;3.03;;;0.30;;
52614;SDS011;38508;53.158;6.614;2022-08-06T08:06:50;8.35;;;0.43;;
52614;SDS011;38508;53.158;6.614;2022-08-06T08:09:17;3.72;;;0.30;;
52614;SDS011;38508;53.158;6.614;2022-08-06T08:11:46;3.10;;;0.20;;
52614;SDS011;38508;53.158;6.614;2022-08-06T08:14:15;2.88;;;0.50;;
52614;SDS011;38508;53.158;6.614;2022-08-06T08:16:43;2.75;;;0.50;;
52614;SDS011;38508;53.158;6.614;2022-08-06T08:21:56;2.75;;;0.40;;
52614;SDS011;38508;53.158;6.614;2022-08-06T08:24:28;1.58;;;0.30;;
52614;SDS011;38508;53.158;6.614;2022-08-06T08:26:56;3.20;;;0.60;;
52614;SDS011;38508;53.158;6.614;2022-08-06T08:29:23;4.22;;;0.50;;
52614;SDS011;38508;53.158;6.614;2022-08-06T08:31:48;3.65;;;0.73;;
52614;SDS011;38508;53.158;6.614;2022-08-06T08:34:14;3.72;;;0.85;;
52614;SDS011;38508;53.158;6.614;2022-08-06T08:36:41;1.15;;;0.40;;
52614;SDS011;38508;53.158;6.614;2022-08-06T08:39:07;3.22;;;0.45;;
52614;SDS011;38508;53.158;6.614;2022-08-06T08:41:35;5.15;;;0.40;;
52614;SDS011;38508;53.158;6.614;2022-08-06T08:44:08;4.18;;;0.40;;
52614;SDS011;38508;53.158;6.614;2022-08-06T08:46:35;3.80;;;0.63;;
52614;SDS011;38508;53.158;6.614;2022-08-06T08:49:51;1.75;;;0.50;;
52614;SDS011;38508;53.158;6.614;2022-08-06T08:52:03;3.95;;;0.40;;
52614;SDS011;38508;53.158;6.614;2022-08-06T08:54:31;5.45;;;0.60;;
52614;SDS011;38508;53.158;6.614;2022-08-06T08:57:01;4.25;;;0.68;;
52614;SDS011;38508;53.158;6.614;2022-08-06T08:59:28;6.05;;;0.60;;
52614;SDS011;38508;53.158;6.614;2022-08-06T09:01:56;3.35;;;0.45;;
52614;SDS011;38508;53.158;6.614;2022-08-06T09:04:22;2.78;;;0.43;;
52614;SDS011;38508;53.158;6.614;2022-08-06T09:06:49;3.03;;;0.57;;
52614;SDS011;38508;53.158;6.614;2022-08-06T09:09:15;2.30;;;0.50;;
52614;SDS011;38508;53.158;6.614;2022-08-06T09:11:40;2.65;;;0.45;;
52614;SDS011;38508;53.158;6.614;2022-08-06T09:14:07;3.80;;;0.88;;
52614;SDS011;38508;53.158;6.614;2022-08-06T09:16:34;3.22;;;0.70;;
52614;SDS011;38508;53.158;6.614;2022-08-06T09:19:01;7.32;;;0.90;;
52614;SDS011;38508;53.158;6.614;2022-08-06T09:21:29;4.88;;;0.60;;
52614;SDS011;38508;53.158;6.614;2022-08-06T09:23:55;2.35;;;0.52;;
52614;SDS011;38508;53.158;6.614;2022-08-06T09:26:21;6.38;;;0.93;;
52614;SDS011;38508;53.158;6.614;2022-08-06T09:28:47;3.97;;;0.80;;
52614;SDS011;38508;53.158;6.614;2022-08-06T09:31:20;3.88;;;1.10;;
52614;SDS011;38508;53.158;6.614;2022-08-06T09:33:53;3.20;;;0.90;;
52614;SDS011;38508;53.158;6.614;2022-08-06T09:36:21;3.88;;;1.08;;
52614;SDS011;38508;53.158;6.614;2022-08-06T09:38:50;5.97;;;1.10;;
52614;SDS011;38508;53.158;6.614;2022-08-06T09:41:19;6.75;;;0.90;;
52614;SDS011;38508;53.158;6.614;2022-08-06T09:43:50;3.80;;;0.80;;
52614;SDS011;38508;53.158;6.614;2022-08-06T09:46:17;7.47;;;1.27;;
52614;SDS011;38508;53.158;6.614;2022-08-06T09:49:00;2.47;;;0.90;;
52614;SDS011;38508;53.158;6.614;2022-08-06T09:51:26;3.90;;;1.00;;
52614;SDS011;38508;53.158;6.614;2022-08-06T09:53:53;3.25;;;1.05;;
52614;SDS011;38508;53.158;6.614;2022-08-06T09:56:23;4.13;;;1.00;;
52614;SDS011;38508;53.158;6.614;2022-08-06T09:58:50;3.63;;;0.90;;
52614;SDS011;38508;53.158;6.614;2022-08-06T10:01:23;5.35;;;1.00;;
52614;SDS011;38508;53.158;6.614;2022-08-06T10:03:49;7.13;;;1.20;;
52614;SDS011;38508;53.158;6.614;2022-08-06T10:06:17;2.22;;;0.90;;
52614;SDS011;38508;53.158;6.614;2022-08-06T10:08:50;4.93;;;0.93;;
52614;SDS011;38508;53.158;6.614;2022-08-06T10:11:35;3.88;;;1.02;;
52614;SDS011;38508;53.158;6.614;2022-08-06T10:14:05;4.28;;;1.00;;
52614;SDS011;38508;53.158;6.614;2022-08-06T10:17:02;5.65;;;1.20;;
52614;SDS011;38508;53.158;6.614;2022-08-06T10:19:31;2.28;;;1.00;;
52614;SDS011;38508;53.158;6.614;2022-08-06T10:22:02;4.50;;;1.23;;
52614;SDS011;38508;53.158;6.614;2022-08-06T10:24:36;1.83;;;0.98;;
52614;SDS011;38508;53.158;6.614;2022-08-06T10:27:06;4.82;;;1.27;;
52614;SDS011;38508;53.158;6.614;2022-08-06T10:29:34;2.20;;;1.00;;
52614;SDS011;38508;53.158;6.614;2022-08-06T10:32:04;3.97;;;1.40;;
52614;SDS011;38508;53.158;6.614;2022-08-06T10:34:32;5.55;;;1.75;;
52614;SDS011;38508;53.158;6.614;2022-08-06T10:37:01;5.65;;;1.40;;
52614;SDS011;38508;53.158;6.614;2022-08-06T10:39:33;3.45;;;1.48;;
52614;SDS011;38508;53.158;6.614;2022-08-06T10:42:02;3.35;;;1.60;;
52614;SDS011;38508;53.158;6.614;2022-08-06T10:44:28;3.22;;;1.40;;
52614;SDS011;38508;53.158;6.614;2022-08-06T10:46:56;4.32;;;1.38;;
52614;SDS011;38508;53.158;6.614;2022-08-06T10:49:24;4.55;;;1.40;;
52614;SDS011;38508;53.158;6.614;2022-08-06T10:51:51;3.42;;;1.65;;
52614;SDS011;38508;53.158;6.614;2022-08-06T10:54:18;2.88;;;1.52;;
52614;SDS011;38508;53.158;6.614;2022-08-06T10:56:47;4.00;;;1.50;;
52614;SDS011;38508;53.158;6.614;2022-08-06T10:59:14;3.17;;;1.40;;
52614;SDS011;38508;53.158;6.614;2022-08-06T11:01:46;7.22;;;1.50;;
52614;SDS011;38508;53.158;6.614;2022-08-06T11:07:08;4.32;;;1.48;;
52614;SDS011;38508;53.158;6.614;2022-08-06T11:12:49;3.03;;;1.40;;
52614;SDS011;38508;53.158;6.614;2022-08-06T11:15:24;4.05;;;1.60;;
52614;SDS011;38508;53.158;6.614;2022-08-06T11:17:51;5.13;;;1.42;;
52614;SDS011;38508;53.158;6.614;2022-08-06T11:23:04;4.35;;;1.80;;
52614;SDS011;38508;53.158;6.614;2022-08-06T11:25:54;2.92;;;1.60;;
52614;SDS011;38508;53.158;6.614;2022-08-06T11:30:55;3.80;;;1.67;;
52614;SDS011;38508;53.158;6.614;2022-08-06T11:36:04;3.03;;;1.90;;
52614;SDS011;38508;53.158;6.614;2022-08-06T11:41:31;4.18;;;2.20;;
52614;SDS011;38508;53.158;6.614;2022-08-06T11:44:07;3.78;;;1.75;;
52614;SDS011;38508;53.158;6.614;2022-08-06T11:46:37;4.78;;;1.70;;
52614;SDS011;38508;53.158;6.614;2022-08-06T11:49:18;2.67;;;1.92;;
52614;SDS011;38508;53.158;6.614;2022-08-06T11:52:07;2.60;;;1.83;;
52614;SDS011;38508;53.158;6.614;2022-08-06T11:57:26;4.15;;;2.15;;
52614;SDS011;38508;53.158;6.614;2022-08-06T12:05:06;3.08;;;2.47;;
52614;SDS011;38508;53.158;6.614;2022-08-06T12:08:35;3.63;;;2.20;;
52614;SDS011;38508;53.158;6.614;2022-08-06T12:13:49;4.05;;;2.33;;
52614;SDS011;38508;53.158;6.614;2022-08-06T12:16:34;3.67;;;2.50;;
52614;SDS011;38508;53.158;6.614;2022-08-06T12:19:02;4.65;;;2.50;;
52614;SDS011;38508;53.158;6.614;2022-08-06T12:21:29;3.10;;;2.35;;
52614;SDS011;38508;53.158;6.614;2022-08-06T12:23:56;4.97;;;2.80;;
52614;SDS011;38508;53.158;6.614;2022-08-06T12:26:23;3.00;;;2.50;;
52614;SDS011;38508;53.158;6.614;2022-08-06T12:28:49;3.30;;;2.70;;
52614;SDS011;38508;53.158;6.614;2022-08-06T12:31:28;3.60;;;2.75;;
52614;SDS011;38508;53.158;6.614;2022-08-06T12:33:55;4.05;;;2.58;;
52614;SDS011;38508;53.158;6.614;2022-08-06T12:36:20;5.57;;;2.80;;
52614;SDS011;38508;53.158;6.614;2022-08-06T12:38:53;5.72;;;2.58;;
52614;SDS011;38508;53.158;6.614;2022-08-06T12:41:20;3.58;;;2.40;;
52614;SDS011;38508;53.158;6.614;2022-08-06T12:43:46;4.95;;;2.72;;
52614;SDS011;38508;53.158;6.614;2022-08-06T12:46:11;3.60;;;2.47;;
52614;SDS011;38508;53.158;6.614;2022-08-06T12:48:44;4.90;;;3.00;;
52614;SDS011;38508;53.158;6.614;2022-08-06T12:51:12;3.42;;;2.30;;
52614;SDS011;38508;53.158;6.614;2022-08-06T12:53:46;3.60;;;2.10;;
52614;SDS011;38508;53.158;6.614;2022-08-06T12:56:17;2.90;;;2.30;;
52614;SDS011;38508;53.158;6.614;2022-08-06T12:58:47;2.85;;;2.08;;
52614;SDS011;38508;53.158;6.614;2022-08-06T13:01:15;3.17;;;2.47;;
52614;SDS011;38508;53.158;6.614;2022-08-06T13:03:44;2.55;;;2.25;;
52614;SDS011;38508;53.158;6.614;2022-08-06T13:06:11;3.33;;;2.53;;
52614;SDS011;38508;53.158;6.614;2022-08-06T13:08:39;3.97;;;2.13;;
52614;SDS011;38508;53.158;6.614;2022-08-06T13:11:06;4.78;;;2.80;;
52614;SDS011;38508;53.158;6.614;2022-08-06T13:13:45;3.58;;;2.53;;
52614;SDS011;38508;53.158;6.614;2022-08-06T13:16:16;4.68;;;2.60;;
52614;SDS011;38508;53.158;6.614;2022-08-06T13:18:43;4.35;;;2.50;;
52614;SDS011;38508;53.158;6.614;2022-08-06T13:21:29;4.07;;;2.70;;
52614;SDS011;38508;53.158;6.614;2022-08-06T13:23:54;3.10;;;2.30;;
52614;SDS011;38508;53.158;6.614;2022-08-06T13:26:24;3.20;;;2.45;;
52614;SDS011;38508;53.158;6.614;2022-08-06T13:29:11;3.85;;;2.47;;
52614;SDS011;38508;53.158;6.614;2022-08-06T13:31:42;4.15;;;2.70;;
52614;SDS011;38508;53.158;6.614;2022-08-06T13:34:10;4.40;;;2.83;;
52614;SDS011;38508;53.158;6.614;2022-08-06T13:36:41;3.72;;;2.80;;
52614;SDS011;38508;53.158;6.614;2022-08-06T13:39:16;3.75;;;2.88;;
52614;SDS011;38508;53.158;6.614;2022-08-06T13:41:46;5.80;;;2.65;;
52614;SDS011;38508;53.158;6.614;2022-08-06T13:44:28;4.45;;;2.30;;
52614;SDS011;38508;53.158;6.614;2022-08-06T13:46:55;3.13;;;2.30;;
52614;SDS011;38508;53.158;6.614;2022-08-06T13:49:20;5.68;;;2.55;;
52614;SDS011;38508;53.158;6.614;2022-08-06T13:51:46;4.05;;;2.80;;
52614;SDS011;38508;53.158;6.614;2022-08-06T13:54:12;4.63;;;2.83;;
52614;SDS011;38508;53.158;6.614;2022-08-06T13:56:37;3.40;;;2.63;;
52614;SDS011;38508;53.158;6.614;2022-08-06T13:59:03;3.85;;;2.95;;
52614;SDS011;38508;53.158;6.614;2022-08-06T14:01:29;4.45;;;2.65;;
52614;SDS011;38508;53.158;6.614;2022-08-06T14:03:55;7.70;;;2.70;;
52614;SDS011;38508;53.158;6.614;2022-08-06T14:06:20;3.70;;;2.30;;
52614;SDS011;38508;53.158;6.614;2022-08-06T14:08:46;4.63;;;3.08;;
52614;SDS011;38508;53.158;6.614;2022-08-06T14:11:12;3.17;;;2.88;;
52614;SDS011;38508;53.158;6.614;2022-08-06T14:13:37;2.88;;;2.40;;
52614;SDS011;38508;53.158;6.614;2022-08-06T14:16:03;3.00;;;2.55;;
52614;SDS011;38508;53.158;6.614;2022-08-06T14:18:29;3.65;;;2.80;;
52614;SDS011;38508;53.158;6.614;2022-08-06T14:20:55;3.85;;;2.42;;
52614;SDS011;38508;53.158;6.614;2022-08-06T14:23:21;3.42;;;2.47;;
52614;SDS011;38508;53.158;6.614;2022-08-06T14:25:47;3.67;;;2.58;;
52614;SDS011;38508;53.158;6.614;2022-08-06T14:28:12;10.32;;;2.88;;
52614;SDS011;38508;53.158;6.614;2022-08-06T14:30:39;5.13;;;2.45;;
52614;SDS011;38508;53.158;6.614;2022-08-06T14:33:05;3.25;;;2.00;;
52614;SDS011;38508;53.158;6.614;2022-08-06T14:35:34;3.38;;;2.30;;
52614;SDS011;38508;53.158;6.614;2022-08-06T14:38:02;4.22;;;2.38;;
52614;SDS011;38508;53.158;6.614;2022-08-06T14:40:28;3.55;;;2.40;;
52614;SDS011;38508;53.158;6.614;2022-08-06T14:43:13;3.45;;;2.05;;
52614;SDS011;38508;53.158;6.614;2022-08-06T14:45:57;4.60;;;2.50;;
52614;SDS011;38508;53.158;6.614;2022-08-06T14:48:32;2.88;;;2.28;;
52614;SDS011;38508;53.158;6.614;2022-08-06T14:50:58;4.30;;;2.20;;
52614;SDS011;38508;53.158;6.614;2022-08-06T14:53:23;3.47;;;2.10;;
52614;SDS011;38508;53.158;6.614;2022-08-06T14:55:49;2.67;;;2.08;;
52614;SDS011;38508;53.158;6.614;2022-08-06T14:58:15;3.58;;;2.25;;
52614;SDS011;38508;53.158;6.614;2022-08-06T15:00:40;3.35;;;2.22;;
52614;SDS011;38508;53.158;6.614;2022-08-06T15:03:06;3.58;;;2.05;;
52614;SDS011;38508;53.158;6.614;2022-08-06T15:05:31;3.55;;;1.90;;
52614;SDS011;38508;53.158;6.614;2022-08-06T15:08:00;4.57;;;1.90;;
52614;SDS011;38508;53.158;6.614;2022-08-06T15:10:26;3.72;;;2.20;;
52614;SDS011;38508;53.158;6.614;2022-08-06T15:12:52;3.38;;;2.28;;
52614;SDS011;38508;53.158;6.614;2022-08-06T15:15:17;2.70;;;2.08;;
52614;SDS011;38508;53.158;6.614;2022-08-06T15:17:43;3.33;;;1.65;;
52614;SDS011;38508;53.158;6.614;2022-08-06T15:20:09;2.60;;;1.70;;
52614;SDS011;38508;53.158;6.614;2022-08-06T15:22:35;3.40;;;2.17;;
52614;SDS011;38508;53.158;6.614;2022-08-06T15:25:01;3.25;;;1.88;;
52614;SDS011;38508;53.158;6.614;2022-08-06T15:27:27;5.03;;;2.05;;
52614;SDS011;38508;53.158;6.614;2022-08-06T15:29:53;3.47;;;2.00;;
52614;SDS011;38508;53.158;6.614;2022-08-06T15:32:19;2.72;;;1.40;;
52614;SDS011;38508;53.158;6.614;2022-08-06T15:34:45;3.67;;;2.05;;
52614;SDS011;38508;53.158;6.614;2022-08-06T15:37:10;2.90;;;1.90;;
52614;SDS011;38508;53.158;6.614;2022-08-06T15:39:36;4.38;;;1.70;;
52614;SDS011;38508;53.158;6.614;2022-08-06T15:42:02;3.65;;;1.70;;
52614;SDS011;38508;53.158;6.614;2022-08-06T15:44:27;3.90;;;1.60;;
52614;SDS011;38508;53.158;6.614;2022-08-06T15:46:53;2.22;;;1.50;;
52614;SDS011;38508;53.158;6.614;2022-08-06T15:49:19;4.13;;;2.03;;
52614;SDS011;38508;53.158;6.614;2022-08-06T15:51:44;5.57;;;1.52;;
52614;SDS011;38508;53.158;6.614;2022-08-06T15:54:10;5.60;;;1.75;;
52614;SDS011;38508;53.158;6.614;2022-08-06T15:56:36;3.22;;;1.63;;
52614;SDS011;38508;53.158;6.614;2022-08-06T15:59:02;3.05;;;1.83;;
52614;SDS011;38508;53.158;6.614;2022-08-06T16:01:28;4.57;;;1.70;;
52614;SDS011;38508;53.158;6.614;2022-08-06T16:03:54;3.92;;;1.60;;